createdAt,value
2018-11-11T00:00:40.891Z,0
2018-11-11T00:01:50.778Z,0
2018-11-11T00:03:00.116Z,0
2018-11-11T00:04:10.336Z,0
2018-11-11T00:05:20.221Z,0
2018-11-11T00:06:30.388Z,0
2018-11-11T00:07:39.999Z,0
2018-11-11T00:08:50.171Z,0
2018-11-11T00:10:00.109Z,0
2018-11-11T00:11:09.726Z,0
2018-11-11T00:12:19.608Z,0
2018-11-11T00:13:29.234Z,0
2018-11-11T00:14:39.117Z,0
2018-11-11T00:15:48.726Z,0
2018-11-11T00:16:58.890Z,0
2018-11-11T00:18:07.958Z,0
2018-11-11T00:19:17.589Z,0
2018-11-11T00:20:26.938Z,0
2018-11-11T00:21:37.016Z,0
2018-11-11T00:22:46.579Z,0
2018-11-11T00:23:56.748Z,0
2018-11-11T00:25:06.640Z,0
2018-11-11T00:26:16.540Z,0
2018-11-11T00:27:26.708Z,0
2018-11-11T00:28:37.119Z,0
2018-11-11T00:29:46.991Z,0
2018-11-11T00:30:56.887Z,0
2018-11-11T00:32:06.507Z,0
2018-11-11T00:33:16.169Z,0
2018-11-11T00:34:26.066Z,0
2018-11-11T00:35:35.959Z,0
2018-11-11T00:36:45.299Z,0
2018-11-11T00:37:55.189Z,0
2018-11-11T00:39:05.131Z,0
2018-11-11T00:40:14.743Z,0
2018-11-11T00:41:24.368Z,0
2018-11-11T00:42:34.253Z,0
2018-11-11T00:43:43.589Z,0
2018-11-11T00:44:53.476Z,0
2018-11-11T00:46:03.641Z,0
2018-11-11T00:47:13.257Z,0
2018-11-11T00:48:22.868Z,0
2018-11-11T00:49:32.488Z,0
2018-11-11T00:50:41.832Z,0
2018-11-11T00:51:51.450Z,0
2018-11-11T00:53:01.345Z,0
2018-11-11T00:54:11.506Z,0
2018-11-11T00:55:21.123Z,0
2018-11-11T00:56:30.464Z,0
2018-11-11T00:57:40.362Z,0
2018-11-11T00:58:49.986Z,0
2018-11-11T01:00:00.183Z,0
2018-11-11T01:01:10.172Z,0
2018-11-11T01:02:19.785Z,0
2018-11-11T01:03:29.666Z,0
2018-11-11T01:04:39.290Z,0
2018-11-11T01:05:48.908Z,0
2018-11-11T01:06:58.824Z,0
2018-11-11T01:08:08.987Z,0
2018-11-11T01:09:18.600Z,0
2018-11-11T01:10:28.226Z,0
2018-11-11T01:11:38.107Z,0
2018-11-11T01:12:47.733Z,0
2018-11-11T01:13:57.618Z,0
2018-11-11T01:15:07.511Z,0
2018-11-11T01:16:17.695Z,0
2018-11-11T01:17:27.038Z,0
2018-11-11T01:18:36.654Z,0
2018-11-11T01:19:46.865Z,0
2018-11-11T01:20:56.753Z,0
2018-11-11T01:22:06.365Z,0
2018-11-11T01:23:15.981Z,0
2018-11-11T01:24:25.877Z,0
2018-11-11T01:25:35.488Z,0
2018-11-11T01:26:45.376Z,0
2018-11-11T01:27:55.002Z,0
2018-11-11T01:29:05.168Z,0
2018-11-11T01:30:14.805Z,0
2018-11-11T01:31:24.744Z,0
2018-11-11T01:32:34.641Z,0
2018-11-11T01:33:44.524Z,0
2018-11-11T01:34:54.682Z,0
2018-11-11T01:36:04.304Z,0
2018-11-11T01:37:14.235Z,0
2018-11-11T01:38:24.130Z,0
2018-11-11T01:39:34.294Z,0
2018-11-11T01:40:44.462Z,0
2018-11-11T01:41:54.403Z,0
2018-11-11T01:43:04.563Z,0
2018-11-11T01:44:14.447Z,0
2018-11-11T01:45:24.332Z,0
2018-11-11T01:46:34.500Z,0
2018-11-11T01:47:44.388Z,0
2018-11-11T01:48:54.006Z,0
2018-11-11T01:50:03.892Z,0
2018-11-11T01:51:13.789Z,0
2018-11-11T01:52:23.954Z,0
2018-11-11T01:53:33.844Z,0
2018-11-11T01:54:43.187Z,0
2018-11-11T01:55:53.073Z,0
2018-11-11T01:57:02.975Z,0
2018-11-11T01:58:12.596Z,0
2018-11-11T01:59:22.214Z,0
2018-11-11T02:00:32.110Z,0
2018-11-11T02:01:41.452Z,0
2018-11-11T02:02:51.345Z,0
2018-11-11T02:04:00.958Z,0
2018-11-11T02:05:10.858Z,0
2018-11-11T02:06:19.925Z,0
2018-11-11T02:07:30.092Z,0
2018-11-11T02:08:39.705Z,0
2018-11-11T02:09:49.889Z,0
2018-11-11T02:10:59.740Z,0
2018-11-11T02:12:09.368Z,0
2018-11-11T02:13:19.034Z,0
2018-11-11T02:14:28.660Z,0
2018-11-11T02:15:38.823Z,0
2018-11-11T02:16:48.979Z,0
2018-11-11T02:17:58.882Z,0
2018-11-11T02:19:08.501Z,0
2018-11-11T02:20:18.669Z,0
2018-11-11T02:21:28.927Z,0
2018-11-11T02:22:39.150Z,0
2018-11-11T02:23:48.766Z,0
2018-11-11T02:24:58.660Z,0
2018-11-11T02:26:08.013Z,0
2018-11-11T02:27:17.912Z,0
2018-11-11T02:28:27.795Z,0
2018-11-11T02:29:37.696Z,0
2018-11-11T02:30:47.868Z,0
2018-11-11T02:31:57.489Z,0
2018-11-11T02:33:07.401Z,0
2018-11-11T02:34:17.299Z,0
2018-11-11T02:35:27.507Z,0
2018-11-11T02:36:37.670Z,0
2018-11-11T02:37:48.282Z,0
2018-11-11T02:38:58.180Z,0
2018-11-11T02:40:08.362Z,0
2018-11-11T02:41:18.263Z,0
2018-11-11T02:42:28.162Z,0
2018-11-11T02:43:38.055Z,0
2018-11-11T02:44:47.953Z,0
2018-11-11T02:45:57.850Z,0
2018-11-11T02:47:07.486Z,0
2018-11-11T02:48:16.836Z,0
2018-11-11T02:49:27.025Z,0
2018-11-11T02:50:36.924Z,0
2018-11-11T02:51:47.087Z,0
2018-11-11T02:52:57.297Z,0
2018-11-11T02:54:07.202Z,0
2018-11-11T02:55:17.091Z,0
2018-11-11T02:56:26.706Z,0
2018-11-11T02:57:36.601Z,0
2018-11-11T02:58:46.767Z,0
2018-11-11T02:59:56.109Z,0
2018-11-11T03:01:06.270Z,0
2018-11-11T03:02:16.169Z,0
2018-11-11T03:03:26.055Z,0
2018-11-11T03:04:37.041Z,0
2018-11-11T03:05:47.281Z,0
2018-11-11T03:06:57.455Z,0
2018-11-11T03:08:07.342Z,0
2018-11-11T03:09:16.686Z,0
2018-11-11T03:10:26.590Z,0
2018-11-11T03:11:36.762Z,0
2018-11-11T03:12:46.651Z,0
2018-11-11T03:13:56.557Z,0
2018-11-11T03:15:06.171Z,0
2018-11-11T03:16:16.337Z,0
2018-11-11T03:17:25.682Z,0
2018-11-11T03:18:35.575Z,0
2018-11-11T03:19:45.182Z,0
2018-11-11T03:20:55.076Z,0
2018-11-11T03:22:05.258Z,0
2018-11-11T03:23:15.149Z,0
2018-11-11T03:24:25.042Z,0
2018-11-11T03:25:34.930Z,0
2018-11-11T03:26:45.095Z,0
2018-11-11T03:27:55.044Z,0
2018-11-11T03:29:04.664Z,0
2018-11-11T03:30:14.829Z,0
2018-11-11T03:31:24.752Z,0
2018-11-11T03:32:34.923Z,0
2018-11-11T03:33:45.090Z,0
2018-11-11T03:34:54.980Z,0
2018-11-11T03:36:04.592Z,0
2018-11-11T03:37:14.214Z,0
2018-11-11T03:38:24.378Z,0
2018-11-11T03:39:34.265Z,0
2018-11-11T03:40:43.885Z,0
2018-11-11T03:41:53.792Z,0
2018-11-11T03:43:03.417Z,0
2018-11-11T03:44:13.585Z,0
2018-11-11T03:45:23.742Z,0
2018-11-11T03:46:33.634Z,0
2018-11-11T03:47:43.810Z,0
2018-11-11T03:48:53.430Z,0
2018-11-11T03:50:03.611Z,0
2018-11-11T03:51:13.431Z,0
2018-11-11T03:52:23.322Z,0
2018-11-11T03:53:33.489Z,0
2018-11-11T03:54:43.661Z,0
2018-11-11T03:55:53.826Z,0
2018-11-11T03:57:03.449Z,0
2018-11-11T03:58:13.623Z,0
2018-11-11T03:59:23.536Z,0
2018-11-11T04:00:33.435Z,0
2018-11-11T04:01:43.604Z,0
2018-11-11T04:02:53.239Z,0
2018-11-11T04:04:03.128Z,0
2018-11-11T04:05:13.020Z,0
2018-11-11T04:06:23.209Z,0
2018-11-11T04:07:33.106Z,0
2018-11-11T04:08:43.284Z,0
2018-11-11T04:09:53.178Z,0
2018-11-11T04:11:02.516Z,0
2018-11-11T04:12:12.141Z,0
2018-11-11T04:13:21.765Z,0
2018-11-11T04:14:31.443Z,0
2018-11-11T04:15:41.332Z,0
2018-11-11T04:16:50.956Z,0
2018-11-11T04:18:00.573Z,0
2018-11-11T04:19:10.193Z,0
2018-11-11T04:20:20.124Z,0
2018-11-11T04:21:30.016Z,0
2018-11-11T04:22:40.189Z,0
2018-11-11T04:23:49.805Z,0
2018-11-11T04:24:59.710Z,0
2018-11-11T04:26:09.611Z,0
2018-11-11T04:27:19.507Z,0
2018-11-11T04:28:29.396Z,0
2018-11-11T04:29:39.570Z,0
2018-11-11T04:30:49.746Z,0
2018-11-11T04:31:59.914Z,0
2018-11-11T04:33:09.532Z,0
2018-11-11T04:34:19.420Z,0
2018-11-11T04:35:29.599Z,0
2018-11-11T04:36:39.220Z,0
2018-11-11T04:37:49.440Z,0
2018-11-11T04:38:59.474Z,0
2018-11-11T04:40:09.374Z,0
2018-11-11T04:41:18.726Z,0
2018-11-11T04:42:28.621Z,0
2018-11-11T04:43:38.784Z,0
2018-11-11T04:44:48.457Z,0
2018-11-11T04:45:58.351Z,0
2018-11-11T04:47:08.253Z,0
2018-11-11T04:48:18.419Z,0
2018-11-11T04:49:28.699Z,0
2018-11-11T04:50:38.601Z,0
2018-11-11T04:51:48.489Z,0
2018-11-11T04:52:57.838Z,0
2018-11-11T04:54:07.456Z,0
2018-11-11T04:55:17.357Z,0
2018-11-11T04:56:27.528Z,0
2018-11-11T04:57:37.138Z,0
2018-11-11T04:58:46.485Z,0
2018-11-11T04:59:56.105Z,0
2018-11-11T05:01:06.279Z,0
2018-11-11T05:02:16.174Z,0
2018-11-11T05:03:25.239Z,0
2018-11-11T05:04:35.383Z,0
2018-11-11T05:05:45.552Z,0
2018-11-11T05:06:55.172Z,0
2018-11-11T05:08:05.342Z,0
2018-11-11T05:09:15.514Z,0
2018-11-11T05:10:25.697Z,0
2018-11-11T05:11:35.615Z,0
2018-11-11T05:12:44.965Z,0
2018-11-11T05:13:54.298Z,0
2018-11-11T05:15:03.962Z,0
2018-11-11T05:16:13.852Z,0
2018-11-11T05:17:23.476Z,0
2018-11-11T05:18:33.362Z,0
2018-11-11T05:19:42.975Z,0
2018-11-11T05:20:52.864Z,0
2018-11-11T05:22:03.641Z,0
2018-11-11T05:23:13.890Z,0
2018-11-11T05:24:23.783Z,0
2018-11-11T05:25:33.681Z,0
2018-11-11T05:26:43.616Z,0
2018-11-11T05:27:53.788Z,0
2018-11-11T05:29:03.417Z,0
2018-11-11T05:30:13.312Z,0
2018-11-11T05:31:23.478Z,0
2018-11-11T05:32:33.367Z,0
2018-11-11T05:33:43.258Z,0
2018-11-11T05:34:53.431Z,0
2018-11-11T05:36:03.054Z,0
2018-11-11T05:37:12.396Z,0
2018-11-11T05:38:22.281Z,0
2018-11-11T05:39:32.183Z,0
2018-11-11T05:40:41.804Z,0
2018-11-11T05:41:51.744Z,0
2018-11-11T05:43:01.633Z,0
2018-11-11T05:44:11.525Z,0
2018-11-11T05:45:21.687Z,0
2018-11-11T05:46:31.847Z,0
2018-11-11T05:47:41.457Z,0
2018-11-11T05:48:51.355Z,0
2018-11-11T05:50:01.248Z,0
2018-11-11T05:51:11.144Z,0
2018-11-11T05:52:20.761Z,0
2018-11-11T05:53:30.377Z,0
2018-11-11T05:54:40.264Z,0
2018-11-11T05:55:50.148Z,0
2018-11-11T05:56:59.488Z,0
2018-11-11T05:58:09.383Z,0
2018-11-11T05:59:19.272Z,0
2018-11-11T06:00:28.618Z,0
2018-11-11T06:01:38.777Z,0
2018-11-11T06:02:48.939Z,0
2018-11-11T06:03:58.817Z,0
2018-11-11T06:05:08.156Z,0
2018-11-11T06:06:18.321Z,0
2018-11-11T06:07:27.936Z,0
2018-11-11T06:08:37.828Z,0
2018-11-11T06:09:47.442Z,0
2018-11-11T06:10:57.332Z,0
2018-11-11T06:12:06.985Z,0
2018-11-11T06:13:16.872Z,0
2018-11-11T06:14:27.044Z,0
2018-11-11T06:15:36.658Z,0
2018-11-11T06:16:46.052Z,0
2018-11-11T06:17:54.849Z,0
2018-11-11T06:19:04.738Z,0
2018-11-11T06:20:14.630Z,0
2018-11-11T06:21:23.694Z,0
2018-11-11T06:22:33.579Z,0
2018-11-11T06:23:42.645Z,0
2018-11-11T06:24:52.569Z,0
2018-11-11T06:26:02.468Z,0
2018-11-11T06:27:12.106Z,0
2018-11-11T06:28:21.505Z,0
2018-11-11T06:29:31.395Z,0
2018-11-11T06:30:41.052Z,0
2018-11-11T06:31:50.948Z,0
2018-11-11T06:33:00.834Z,0
2018-11-11T06:34:10.874Z,0
2018-11-11T06:35:21.067Z,5
2018-11-11T06:36:31.229Z,5
2018-11-11T06:37:41.396Z,5
2018-11-11T06:38:51.284Z,5
2018-11-11T06:40:01.214Z,5
2018-11-11T06:41:10.835Z,5
2018-11-11T06:42:20.178Z,10
2018-11-11T06:43:30.066Z,10
2018-11-11T06:44:40.230Z,10
2018-11-11T06:45:50.125Z,10
2018-11-11T06:47:00.022Z,10
2018-11-11T06:48:10.000Z,15
2018-11-11T06:49:20.202Z,15
2018-11-11T06:50:30.369Z,15
2018-11-11T06:51:40.266Z,15
2018-11-11T06:52:50.453Z,15
2018-11-11T06:54:00.623Z,20
2018-11-11T06:55:10.787Z,20
2018-11-11T06:56:20.951Z,20
2018-11-11T06:57:30.850Z,20
2018-11-11T06:58:41.007Z,25
2018-11-11T06:59:50.891Z,25
2018-11-11T07:01:00.513Z,25
2018-11-11T07:02:10.140Z,30
2018-11-11T07:03:20.027Z,30
2018-11-11T07:04:29.914Z,35
2018-11-11T07:05:39.854Z,35
2018-11-11T07:06:49.469Z,35
2018-11-11T07:07:59.358Z,40
2018-11-11T07:09:09.258Z,40
2018-11-11T07:10:19.146Z,40
2018-11-11T07:11:29.035Z,40
2018-11-11T07:12:38.372Z,40
2018-11-11T07:13:48.372Z,45
2018-11-11T07:14:58.285Z,45
2018-11-11T07:16:08.169Z,50
2018-11-11T07:17:18.334Z,50
2018-11-11T07:18:27.956Z,55
2018-11-11T07:19:38.127Z,55
2018-11-11T07:20:48.021Z,55
2018-11-11T07:21:58.181Z,55
2018-11-11T07:23:07.800Z,60
2018-11-11T07:24:17.906Z,60
2018-11-11T07:25:27.663Z,60
2018-11-11T07:26:37.292Z,60
2018-11-11T07:27:47.464Z,60
2018-11-11T07:28:57.637Z,55
2018-11-11T07:30:06.702Z,50
2018-11-11T07:31:16.868Z,45
2018-11-11T07:32:26.491Z,40
2018-11-11T07:33:36.385Z,40
2018-11-11T07:34:46.001Z,45
2018-11-11T07:35:55.496Z,55
2018-11-11T07:37:05.748Z,60
2018-11-11T07:38:15.360Z,65
2018-11-11T07:39:24.980Z,70
2018-11-11T07:40:35.145Z,70
2018-11-11T07:41:45.367Z,75
2018-11-11T07:42:55.269Z,75
2018-11-11T07:44:05.219Z,75
2018-11-11T07:45:14.840Z,80
2018-11-11T07:46:25.006Z,80
2018-11-11T07:47:34.346Z,85
2018-11-11T07:48:44.556Z,85
2018-11-11T07:49:54.497Z,85
2018-11-11T07:51:04.385Z,90
2018-11-11T07:52:14.721Z,95
2018-11-11T07:53:24.341Z,95
2018-11-11T07:54:33.696Z,100
2018-11-11T07:55:43.082Z,105
2018-11-11T07:56:53.243Z,110
2018-11-11T07:58:03.147Z,105
2018-11-11T07:59:13.052Z,110
2018-11-11T08:00:22.944Z,115
2018-11-11T08:01:33.035Z,120
2018-11-11T08:02:42.678Z,120
2018-11-11T08:03:52.572Z,120
2018-11-11T08:05:02.195Z,125
2018-11-11T08:06:12.089Z,125
2018-11-11T08:07:21.427Z,130
2018-11-11T08:08:31.318Z,135
2018-11-11T08:09:41.481Z,135
2018-11-11T08:10:51.379Z,140
2018-11-11T08:12:01.607Z,135
2018-11-11T08:13:11.232Z,130
2018-11-11T08:14:21.118Z,120
2018-11-11T08:15:30.463Z,105
2018-11-11T08:16:40.639Z,95
2018-11-11T08:17:50.812Z,85
2018-11-11T08:19:01.029Z,80
2018-11-11T08:20:10.374Z,75
2018-11-11T08:21:20.279Z,75
2018-11-11T08:22:29.900Z,70
2018-11-11T08:23:39.794Z,65
2018-11-11T08:24:50.251Z,65
2018-11-11T08:26:00.149Z,65
2018-11-11T08:27:09.496Z,65
2018-11-11T08:28:19.387Z,65
2018-11-11T08:29:29.008Z,65
2018-11-11T08:30:39.188Z,65
2018-11-11T08:31:49.098Z,70
2018-11-11T08:32:58.717Z,75
2018-11-11T08:34:08.063Z,75
2018-11-11T08:35:17.948Z,85
2018-11-11T08:36:27.567Z,90
2018-11-11T08:37:37.464Z,100
2018-11-11T08:38:47.619Z,100
2018-11-11T08:39:57.795Z,110
2018-11-11T08:41:07.973Z,115
2018-11-11T08:42:17.876Z,115
2018-11-11T08:43:27.500Z,115
2018-11-11T08:44:36.840Z,110
2018-11-11T08:45:46.450Z,95
2018-11-11T08:46:56.340Z,85
2018-11-11T08:48:06.725Z,90
2018-11-11T08:49:16.344Z,95
2018-11-11T08:50:25.972Z,95
2018-11-11T08:51:35.582Z,95
2018-11-11T08:52:45.475Z,95
2018-11-11T08:53:55.641Z,90
2018-11-11T08:55:05.533Z,90
2018-11-11T08:56:15.149Z,90
2018-11-11T08:57:25.315Z,90
2018-11-11T08:58:35.209Z,95
2018-11-11T08:59:44.282Z,95
2018-11-11T09:00:53.901Z,100
2018-11-11T09:02:03.526Z,100
2018-11-11T09:03:12.869Z,105
2018-11-11T09:04:22.498Z,105
2018-11-11T09:05:32.165Z,105
2018-11-11T09:06:41.501Z,105
2018-11-11T09:07:51.401Z,100
2018-11-11T09:09:01.562Z,105
2018-11-11T09:10:10.633Z,110
2018-11-11T09:11:20.907Z,115
2018-11-11T09:12:30.532Z,115
2018-11-11T09:13:40.692Z,115
2018-11-11T09:14:50.578Z,105
2018-11-11T09:16:00.734Z,105
2018-11-11T09:17:10.379Z,120
2018-11-11T09:18:20.287Z,135
2018-11-11T09:19:29.630Z,125
2018-11-11T09:20:39.796Z,105
2018-11-11T09:21:49.420Z,95
2018-11-11T09:22:59.578Z,95
2018-11-11T09:24:08.652Z,100
2018-11-11T09:25:18.856Z,100
2018-11-11T09:26:28.471Z,90
2018-11-11T09:27:38.369Z,85
2018-11-11T09:28:48.263Z,95
2018-11-11T09:29:58.500Z,105
2018-11-11T09:31:08.423Z,115
2018-11-11T09:32:18.328Z,120
2018-11-11T09:33:27.673Z,120
2018-11-11T09:34:37.610Z,115
2018-11-11T09:35:47.495Z,120
2018-11-11T09:36:57.119Z,125
2018-11-11T09:38:06.738Z,140
2018-11-11T09:39:17.348Z,160
2018-11-11T09:40:27.297Z,170
2018-11-11T09:41:37.464Z,195
2018-11-11T09:42:47.875Z,215
2018-11-11T09:43:57.221Z,240
2018-11-11T09:45:07.394Z,270
2018-11-11T09:46:17.291Z,285
2018-11-11T09:47:27.182Z,300
2018-11-11T09:48:37.077Z,300
2018-11-11T09:49:46.429Z,280
2018-11-11T09:50:56.050Z,260
2018-11-11T09:52:05.949Z,235
2018-11-11T09:53:15.030Z,235
2018-11-11T09:54:24.839Z,265
2018-11-11T09:55:34.730Z,315
2018-11-11T09:56:44.612Z,375
2018-11-11T09:57:54.507Z,385
2018-11-11T09:59:04.412Z,365
2018-11-11T10:00:14.030Z,335
2018-11-11T10:01:23.657Z,300
2018-11-11T10:02:33.558Z,255
2018-11-11T10:03:43.224Z,220
2018-11-11T10:04:53.398Z,195
2018-11-11T10:06:03.374Z,160
2018-11-11T10:07:13.823Z,125
2018-11-11T10:08:24.140Z,90
2018-11-11T10:09:34.310Z,130
2018-11-11T10:10:43.657Z,185
2018-11-11T10:11:53.551Z,190
2018-11-11T10:13:03.316Z,160
2018-11-11T10:14:12.656Z,155
2018-11-11T10:15:22.604Z,175
2018-11-11T10:16:32.771Z,180
2018-11-11T10:17:42.381Z,190
2018-11-11T10:18:52.573Z,190
2018-11-11T10:20:02.572Z,205
2018-11-11T10:21:11.927Z,205
2018-11-11T10:22:21.817Z,195
2018-11-11T10:23:31.977Z,225
2018-11-11T10:24:41.863Z,260
2018-11-11T10:25:51.754Z,275
2018-11-11T10:27:01.936Z,290
2018-11-11T10:28:11.847Z,310
2018-11-11T10:29:22.608Z,320
2018-11-11T10:30:32.814Z,310
2018-11-11T10:31:42.696Z,290
2018-11-11T10:32:52.646Z,245
2018-11-11T10:34:02.535Z,170
2018-11-11T10:35:12.160Z,135
2018-11-11T10:36:22.059Z,130
2018-11-11T10:37:32.825Z,180
2018-11-11T10:38:42.795Z,200
2018-11-11T10:39:52.412Z,145
2018-11-11T10:41:02.305Z,135
2018-11-11T10:42:11.932Z,125
2018-11-11T10:43:21.276Z,105
2018-11-11T10:44:32.010Z,95
2018-11-11T10:45:42.270Z,100
2018-11-11T10:46:51.896Z,135
2018-11-11T10:48:01.253Z,150
2018-11-11T10:49:11.144Z,170
2018-11-11T10:50:21.083Z,250
2018-11-11T10:51:31.255Z,200
2018-11-11T10:52:40.875Z,135
2018-11-11T10:53:50.767Z,100
2018-11-11T10:55:00.655Z,115
2018-11-11T10:56:10.835Z,170
2018-11-11T10:57:20.740Z,210
2018-11-11T10:58:30.961Z,280
2018-11-11T10:59:40.868Z,320
2018-11-11T11:00:50.483Z,335
2018-11-11T11:02:00.653Z,360
2018-11-11T11:03:10.837Z,325
2018-11-11T11:04:20.450Z,305
2018-11-11T11:05:29.801Z,260
2018-11-11T11:06:39.700Z,205
2018-11-11T11:07:49.587Z,190
2018-11-11T11:08:59.207Z,210
2018-11-11T11:10:08.828Z,200
2018-11-11T11:11:18.445Z,210
2018-11-11T11:12:28.069Z,175
2018-11-11T11:13:38.726Z,190
2018-11-11T11:14:48.705Z,285
2018-11-11T11:15:58.320Z,250
2018-11-11T11:17:07.944Z,235
2018-11-11T11:18:17.842Z,245
2018-11-11T11:19:27.737Z,255
2018-11-11T11:20:37.091Z,305
2018-11-11T11:21:46.438Z,320
2018-11-11T11:22:56.724Z,325
2018-11-11T11:24:06.669Z,325
2018-11-11T11:25:16.059Z,300
2018-11-11T11:26:25.683Z,285
2018-11-11T11:27:35.842Z,235
2018-11-11T11:28:45.237Z,205
2018-11-11T11:29:55.138Z,205
2018-11-11T11:31:04.212Z,200
2018-11-11T11:32:14.654Z,195
2018-11-11T11:33:24.680Z,160
2018-11-11T11:34:34.335Z,125
2018-11-11T11:35:44.352Z,105
2018-11-11T11:36:54.305Z,85
2018-11-11T11:38:04.602Z,85
2018-11-11T11:39:14.311Z,85
2018-11-11T11:40:23.926Z,110
2018-11-11T11:41:34.435Z,195
2018-11-11T11:42:44.374Z,305
2018-11-11T11:43:54.096Z,365
2018-11-11T11:45:04.027Z,335
2018-11-11T11:46:14.201Z,300
2018-11-11T11:47:24.684Z,295
2018-11-11T11:48:34.599Z,265
2018-11-11T11:49:44.611Z,220
2018-11-11T11:50:54.458Z,195
2018-11-11T11:52:04.995Z,185
2018-11-11T11:53:15.459Z,225
2018-11-11T11:54:25.084Z,315
2018-11-11T11:55:34.974Z,370
2018-11-11T11:56:44.602Z,385
2018-11-11T11:57:54.933Z,420
2018-11-11T11:59:05.158Z,395
2018-11-11T12:00:14.785Z,330
2018-11-11T12:01:24.723Z,340
2018-11-11T12:02:34.610Z,380
2018-11-11T12:03:44.235Z,250
2018-11-11T12:04:53.853Z,220
2018-11-11T12:06:03.472Z,225
2018-11-11T12:07:13.355Z,210
2018-11-11T12:08:23.023Z,205
2018-11-11T12:09:32.986Z,215
2018-11-11T12:10:42.948Z,205
2018-11-11T12:11:52.839Z,190
2018-11-11T12:13:02.734Z,175
2018-11-11T12:14:12.356Z,160
2018-11-11T12:15:21.977Z,145
2018-11-11T12:16:31.509Z,115
2018-11-11T12:17:41.346Z,105
2018-11-11T12:18:50.965Z,115
2018-11-11T12:20:00.862Z,115
2018-11-11T12:21:10.212Z,110
2018-11-11T12:22:20.438Z,100
2018-11-11T12:23:31.184Z,85
2018-11-11T12:24:40.803Z,70
2018-11-11T12:25:50.701Z,70
2018-11-11T12:27:00.584Z,85
2018-11-11T12:28:10.482Z,115
2018-11-11T12:29:20.103Z,125
2018-11-11T12:30:30.779Z,130
2018-11-11T12:31:41.042Z,110
2018-11-11T12:32:50.112Z,115
2018-11-11T12:33:59.464Z,130
2018-11-11T12:35:08.887Z,145
2018-11-11T12:36:18.571Z,145
2018-11-11T12:37:28.479Z,155
2018-11-11T12:38:38.372Z,160
2018-11-11T12:39:48.088Z,160
2018-11-11T12:40:57.884Z,155
2018-11-11T12:42:07.507Z,155
2018-11-11T12:43:17.873Z,160
2018-11-11T12:44:28.113Z,145
2018-11-11T12:45:38.284Z,155
2018-11-11T12:46:48.084Z,155
2018-11-11T12:47:57.715Z,110
2018-11-11T12:49:07.978Z,70
2018-11-11T12:50:18.658Z,50
2018-11-11T12:51:28.862Z,45
2018-11-11T12:52:39.018Z,40
2018-11-11T12:53:48.910Z,35
2018-11-11T12:54:59.015Z,35
2018-11-11T12:56:08.908Z,40
2018-11-11T12:57:18.802Z,50
2018-11-11T12:58:28.693Z,55
2018-11-11T12:59:38.636Z,65
2018-11-11T13:00:48.657Z,70
2018-11-11T13:01:58.609Z,85
2018-11-11T13:03:08.228Z,90
2018-11-11T13:04:18.114Z,95
2018-11-11T13:05:28.017Z,100
2018-11-11T13:06:37.913Z,105
2018-11-11T13:07:47.808Z,120
2018-11-11T13:08:57.438Z,110
2018-11-11T13:10:07.053Z,100
2018-11-11T13:11:16.731Z,115
2018-11-11T13:12:27.954Z,135
2018-11-11T13:13:38.298Z,145
2018-11-11T13:14:47.921Z,135
2018-11-11T13:15:57.006Z,135
2018-11-11T13:17:06.903Z,140
2018-11-11T13:18:16.526Z,130
2018-11-11T13:19:26.151Z,140
2018-11-11T13:20:35.787Z,140
2018-11-11T13:21:45.969Z,125
2018-11-11T13:22:56.827Z,115
2018-11-11T13:24:06.842Z,105
2018-11-11T13:25:16.461Z,90
2018-11-11T13:26:26.078Z,80
2018-11-11T13:27:35.969Z,85
2018-11-11T13:28:45.642Z,90
2018-11-11T13:29:55.557Z,95
2018-11-11T13:31:05.450Z,105
2018-11-11T13:32:15.215Z,110
2018-11-11T13:33:24.835Z,90
2018-11-11T13:34:34.179Z,70
2018-11-11T13:35:44.348Z,60
2018-11-11T13:36:54.244Z,65
2018-11-11T13:38:04.399Z,90
2018-11-11T13:39:13.626Z,115
2018-11-11T13:40:23.236Z,135
2018-11-11T13:41:33.135Z,125
2018-11-11T13:42:43.021Z,100
2018-11-11T13:43:53.185Z,80
2018-11-11T13:45:02.801Z,65
2018-11-11T13:46:12.610Z,55
2018-11-11T13:47:22.798Z,55
2018-11-11T13:48:31.869Z,55
2018-11-11T13:49:41.489Z,60
2018-11-11T13:50:51.108Z,55
2018-11-11T13:52:00.589Z,60
2018-11-11T13:53:09.929Z,65
2018-11-11T13:54:19.566Z,75
2018-11-11T13:55:29.738Z,75
2018-11-11T13:56:39.623Z,75
2018-11-11T13:57:49.529Z,80
2018-11-11T13:58:58.877Z,75
2018-11-11T14:00:08.219Z,65
2018-11-11T14:01:18.112Z,55
2018-11-11T14:02:28.078Z,60
2018-11-11T14:03:37.975Z,65
2018-11-11T14:04:48.145Z,80
2018-11-11T14:05:57.933Z,85
2018-11-11T14:07:07.825Z,70
2018-11-11T14:08:18.090Z,85
2018-11-11T14:09:28.070Z,110
2018-11-11T14:10:38.248Z,140
2018-11-11T14:11:48.409Z,135
2018-11-11T14:12:58.034Z,115
2018-11-11T14:14:07.646Z,115
2018-11-11T14:15:17.533Z,120
2018-11-11T14:16:27.696Z,110
2018-11-11T14:17:37.591Z,85
2018-11-11T14:18:48.676Z,75
2018-11-11T14:19:58.196Z,65
2018-11-11T14:21:08.367Z,65
2018-11-11T14:22:17.992Z,70
2018-11-11T14:23:27.886Z,80
2018-11-11T14:24:37.925Z,105
2018-11-11T14:25:48.518Z,130
2018-11-11T14:26:59.235Z,140
2018-11-11T14:28:08.924Z,130
2018-11-11T14:29:19.099Z,100
2018-11-11T14:30:29.280Z,75
2018-11-11T14:31:39.170Z,65
2018-11-11T14:32:49.202Z,45
2018-11-11T14:33:59.129Z,35
2018-11-11T14:35:08.486Z,35
2018-11-11T14:36:18.646Z,35
2018-11-11T14:37:28.265Z,35
2018-11-11T14:38:38.302Z,35
2018-11-11T14:39:48.198Z,30
2018-11-11T14:40:58.104Z,30
2018-11-11T14:42:08.307Z,25
2018-11-11T14:43:18.478Z,30
2018-11-11T14:44:28.144Z,25
2018-11-11T14:45:37.762Z,25
2018-11-11T14:46:47.650Z,30
2018-11-11T14:47:57.638Z,35
2018-11-11T14:49:07.722Z,40
2018-11-11T14:50:18.195Z,40
2018-11-11T14:51:28.143Z,40
2018-11-11T14:52:38.346Z,30
2018-11-11T14:53:48.069Z,30
2018-11-11T14:54:57.689Z,30
2018-11-11T14:56:07.587Z,35
2018-11-11T14:57:17.473Z,35
2018-11-11T14:58:28.354Z,30
2018-11-11T14:59:38.160Z,25
2018-11-11T15:00:48.049Z,25
2018-11-11T15:01:57.722Z,25
2018-11-11T15:03:07.901Z,25
2018-11-11T15:04:18.028Z,25
2018-11-11T15:05:27.929Z,25
2018-11-11T15:06:37.559Z,20
2018-11-11T15:07:47.506Z,20
2018-11-11T15:08:57.459Z,15
2018-11-11T15:10:06.805Z,15
2018-11-11T15:11:16.429Z,15
2018-11-11T15:12:25.769Z,10
2018-11-11T15:13:35.403Z,10
2018-11-11T15:14:45.600Z,5
2018-11-11T15:15:55.714Z,5
2018-11-11T15:17:05.582Z,5
2018-11-11T15:18:15.484Z,5
2018-11-11T15:19:25.541Z,5
2018-11-11T15:20:36.520Z,5
2018-11-11T15:21:46.021Z,0
2018-11-11T15:22:56.189Z,5
2018-11-11T15:24:05.529Z,5
2018-11-11T15:25:15.786Z,5
2018-11-11T15:26:25.742Z,5
2018-11-11T15:27:35.355Z,5
2018-11-11T15:28:45.253Z,0
2018-11-11T15:29:55.534Z,0
2018-11-11T15:31:06.893Z,0
2018-11-11T15:32:16.911Z,0
2018-11-11T15:33:26.260Z,0
2018-11-11T15:34:36.166Z,0
2018-11-11T15:35:45.875Z,0
2018-11-11T15:36:56.059Z,0
2018-11-11T15:38:05.971Z,0
2018-11-11T15:39:15.644Z,0
2018-11-11T15:40:25.536Z,0
2018-11-11T15:41:35.587Z,0
2018-11-11T15:42:45.552Z,0
2018-11-11T15:43:55.446Z,0
2018-11-11T15:45:04.786Z,0
2018-11-11T15:46:14.132Z,0
2018-11-11T15:47:23.743Z,0
2018-11-11T15:48:33.771Z,0
2018-11-11T15:49:43.400Z,0
2018-11-11T15:50:53.296Z,0
2018-11-11T15:52:03.127Z,0
2018-11-11T15:53:12.983Z,0
2018-11-11T15:54:22.880Z,0
2018-11-11T15:55:32.491Z,0
2018-11-11T15:56:42.378Z,0
2018-11-11T15:57:52.002Z,0
2018-11-11T15:59:02.346Z,0
2018-11-11T16:00:12.068Z,0
2018-11-11T16:01:21.703Z,0
2018-11-11T16:02:31.898Z,0
2018-11-11T16:03:41.810Z,0
2018-11-11T16:04:51.424Z,0
2018-11-11T16:06:01.052Z,0
2018-11-11T16:07:10.666Z,0
2018-11-11T16:08:20.063Z,0
2018-11-11T16:09:29.949Z,0
2018-11-11T16:10:39.849Z,0
2018-11-11T16:11:50.017Z,0
2018-11-11T16:12:59.907Z,0
2018-11-11T16:14:10.183Z,0
2018-11-11T16:15:20.104Z,0
2018-11-11T16:16:29.729Z,0
2018-11-11T16:17:39.617Z,0
2018-11-11T16:18:50.006Z,0
2018-11-11T16:20:00.964Z,0
2018-11-11T16:21:10.876Z,0
2018-11-11T16:22:19.948Z,0
2018-11-11T16:23:30.324Z,0
2018-11-11T16:24:39.968Z,0
2018-11-11T16:25:50.103Z,0
2018-11-11T16:27:00.273Z,0
2018-11-11T16:28:10.175Z,0
2018-11-11T16:29:20.072Z,0
2018-11-11T16:30:29.687Z,0
2018-11-11T16:31:39.976Z,0
2018-11-11T16:32:49.603Z,0
2018-11-11T16:33:59.091Z,0
2018-11-11T16:35:09.256Z,0
2018-11-11T16:36:19.294Z,0
2018-11-11T16:37:29.342Z,0
2018-11-11T16:38:39.519Z,0
2018-11-11T16:39:50.502Z,0
2018-11-11T16:41:00.827Z,0
2018-11-11T16:42:11.303Z,0
2018-11-11T16:43:20.920Z,0
2018-11-11T16:44:30.541Z,0